createdAt,value
2023-02-18T00:00:33.641Z,73628.41
2023-02-18T00:01:10.024Z,73632.41
2023-02-18T00:01:42.610Z,73630.41
2023-02-18T00:02:17.480Z,73626.41
2023-02-18T00:02:52.563Z,73630.41
2023-02-18T00:03:25.406Z,73634.41
2023-02-18T00:04:00.673Z,73632.41
2023-02-18T00:04:33.360Z,73626.41
2023-02-18T00:05:06.507Z,73628.41
2023-02-18T00:05:41.329Z,73628.41
2023-02-18T00:06:16.117Z,73632.41
2023-02-18T00:06:51.520Z,73632.41
2023-02-18T00:07:26.359Z,73636.41
2023-02-18T00:07:58.608Z,73630.41
2023-02-18T00:08:30.927Z,73632.41
2023-02-18T00:09:09.134Z,73628.41
2023-02-18T00:09:41.549Z,73632.41
2023-02-18T00:10:15.418Z,73636.41
2023-02-18T00:10:50.574Z,73640.38
2023-02-18T00:11:23.565Z,73640.38
2023-02-18T00:11:55.794Z,73636.41
2023-02-18T00:12:30.728Z,73640.38
2023-02-18T00:13:02.946Z,73640.38
2023-02-18T00:13:35.397Z,73640.38
2023-02-18T00:14:15.214Z,73640.38
2023-02-18T00:14:47.453Z,73636.41
2023-02-18T00:15:19.940Z,73632.41
2023-02-18T00:15:54.925Z,73642.38
2023-02-18T00:16:28.008Z,73644.38
2023-02-18T00:17:00.233Z,73636.41
2023-02-18T00:17:35.208Z,73632.41
2023-02-18T00:18:09.529Z,73632.41
2023-02-18T00:18:41.870Z,73634.41
2023-02-18T00:19:18.315Z,73636.41
2023-02-18T00:19:50.600Z,73636.41
2023-02-18T00:20:22.847Z,73632.41
2023-02-18T00:20:57.672Z,73630.41
2023-02-18T00:21:29.951Z,73632.41
2023-02-18T00:22:04.786Z,73628.41
2023-02-18T00:22:39.660Z,73632.41
2023-02-18T00:23:11.941Z,73628.41
2023-02-18T00:23:44.245Z,73636.41
2023-02-18T00:24:19.800Z,73634.41
2023-02-18T00:24:52.391Z,73628.41
2023-02-18T00:25:24.965Z,73630.41
2023-02-18T00:26:01.117Z,73636.41
2023-02-18T00:26:36.319Z,73632.41
2023-02-18T00:27:08.661Z,73628.41
2023-02-18T00:27:40.940Z,73634.41
2023-02-18T00:28:16.476Z,73634.41
2023-02-18T00:28:49.127Z,73628.41
2023-02-18T00:29:24.254Z,73628.41
2023-02-18T00:29:56.691Z,73630.41
2023-02-18T00:30:29.073Z,73640.38
2023-02-18T00:31:09.553Z,73640.38
2023-02-18T00:31:42.077Z,73632.41
2023-02-18T00:32:16.990Z,73632.41
2023-02-18T00:32:49.233Z,73632.41
2023-02-18T00:33:21.717Z,73628.41
2023-02-18T00:33:57.158Z,73632.41
2023-02-18T00:34:29.488Z,73632.41
2023-02-18T00:35:01.808Z,73624.41
2023-02-18T00:35:34.923Z,73630.41
2023-02-18T00:36:12.228Z,73632.41
2023-02-18T00:36:44.467Z,73632.41
2023-02-18T00:37:19.373Z,73620.41
2023-02-18T00:37:55.552Z,73632.41
2023-02-18T00:38:27.823Z,73636.41
2023-02-18T00:39:01.999Z,73632.41
2023-02-18T00:39:36.896Z,73630.41
2023-02-18T00:40:09.739Z,73628.41
2023-02-18T00:40:42.138Z,73628.41
2023-02-18T00:41:17.231Z,73632.41
2023-02-18T00:41:49.463Z,73632.41
2023-02-18T00:42:21.846Z,73632.41
2023-02-18T00:42:56.716Z,73628.41
2023-02-18T00:43:29.344Z,73632.41
2023-02-18T00:44:01.788Z,73634.41
2023-02-18T00:44:36.636Z,73632.41
2023-02-18T00:45:09.646Z,73634.41
2023-02-18T00:45:42.173Z,73640.38
2023-02-18T00:46:14.618Z,73628.41
2023-02-18T00:46:50.256Z,73636.41
2023-02-18T00:47:22.551Z,73634.41
2023-02-18T00:47:54.789Z,73632.41
2023-02-18T00:48:27.029Z,73632.41
2023-02-18T00:49:01.902Z,73628.41
2023-02-18T00:49:34.200Z,73630.41
2023-02-18T00:50:12.766Z,73636.41
2023-02-18T00:50:45.061Z,73638.38
2023-02-18T00:51:17.539Z,73628.41
2023-02-18T00:51:52.384Z,73636.41
2023-02-18T00:52:27.215Z,73634.41
2023-02-18T00:52:59.484Z,73636.41
2023-02-18T00:53:31.740Z,73636.41
2023-02-18T00:54:06.763Z,73632.41
2023-02-18T00:54:39.035Z,73634.41
2023-02-18T00:55:11.295Z,73636.41
2023-02-18T00:55:47.994Z,73636.41
2023-02-18T00:56:20.426Z,73636.41
2023-02-18T00:56:55.342Z,73630.41
2023-02-18T00:57:27.575Z,73632.41
2023-02-18T00:57:59.813Z,73636.41
2023-02-18T00:58:34.921Z,73632.41
2023-02-18T00:59:09.802Z,73632.41
2023-02-18T00:59:42.088Z,73632.41
2023-02-18T01:00:17.932Z,73628.41
2023-02-18T01:00:50.538Z,73638.38
2023-02-18T01:01:23.027Z,73634.41
2023-02-18T01:01:57.944Z,73642.38
2023-02-18T01:02:30.204Z,73640.38
2023-02-18T01:03:06.401Z,73636.41
2023-02-18T01:03:43.508Z,73640.38
2023-02-18T01:04:15.904Z,73634.41
2023-02-18T01:04:48.201Z,73636.41
2023-02-18T01:05:23.281Z,73640.38
2023-02-18T01:05:55.728Z,73632.41
2023-02-18T01:06:27.961Z,73636.41
2023-02-18T01:07:02.877Z,73636.41
2023-02-18T01:07:37.729Z,73630.41
2023-02-18T01:08:12.214Z,73634.41
2023-02-18T01:08:47.068Z,73632.41
2023-02-18T01:09:19.367Z,73628.41
2023-02-18T01:09:51.647Z,73632.41
2023-02-18T01:10:26.484Z,73634.41
2023-02-18T01:10:59.334Z,73632.41
2023-02-18T01:11:31.689Z,73636.41
2023-02-18T01:12:06.947Z,73636.41
2023-02-18T01:12:39.283Z,73630.41
2023-02-18T01:13:12.263Z,73622.41
2023-02-18T01:13:47.111Z,73630.41
2023-02-18T01:14:19.386Z,73636.41
2023-02-18T01:14:51.714Z,73634.41
2023-02-18T01:15:27.570Z,73636.41
2023-02-18T01:16:00.215Z,73634.41
2023-02-18T01:16:35.157Z,73628.41
2023-02-18T01:17:10.085Z,73632.41
2023-02-18T01:17:42.649Z,73632.41
2023-02-18T01:18:15.666Z,73632.41
2023-02-18T01:18:50.669Z,73634.41
2023-02-18T01:19:22.924Z,73624.41
2023-02-18T01:19:55.220Z,73626.41
2023-02-18T01:20:30.220Z,73628.41
2023-02-18T01:21:02.449Z,73636.41
2023-02-18T01:21:34.688Z,73632.41
2023-02-18T01:22:09.596Z,73624.41
2023-02-18T01:22:44.752Z,73624.41
2023-02-18T01:23:17.580Z,73624.41
2023-02-18T01:23:52.567Z,73624.41
2023-02-18T01:24:24.830Z,73632.41
2023-02-18T01:24:57.112Z,73624.41
2023-02-18T01:25:34.918Z,73634.41
2023-02-18T01:26:08.219Z,73622.41
2023-02-18T01:26:45.627Z,73628.41
2023-02-18T01:27:17.872Z,73624.41
2023-02-18T01:27:52.091Z,73628.41
2023-02-18T01:28:27.918Z,73624.41
2023-02-18T01:29:01.261Z,73628.41
2023-02-18T01:29:36.125Z,73624.41
2023-02-18T01:30:13.302Z,73628.41
2023-02-18T01:30:45.662Z,73636.41
2023-02-18T01:31:20.590Z,73632.41
2023-02-18T01:31:52.952Z,73624.41
2023-02-18T01:32:25.503Z,73624.41
2023-02-18T01:33:01.332Z,73638.38
2023-02-18T01:33:33.628Z,73620.41
2023-02-18T01:34:06.792Z,73624.41
2023-02-18T01:34:41.669Z,73616.44
2023-02-18T01:35:17.139Z,73624.41
2023-02-18T01:35:49.383Z,73622.41
2023-02-18T01:36:24.268Z,73622.41
2023-02-18T01:36:56.748Z,73620.41
2023-02-18T01:37:29.180Z,73616.44
2023-02-18T01:38:06.685Z,73616.44
2023-02-18T01:38:39.410Z,73624.41
2023-02-18T01:39:11.706Z,73620.41
2023-02-18T01:39:46.584Z,73608.44
2023-02-18T01:40:20.992Z,73620.41
2023-02-18T01:40:53.459Z,73616.44
2023-02-18T01:41:29.466Z,73616.44
2023-02-18T01:42:01.975Z,73618.44
2023-02-18T01:42:34.667Z,73620.41
2023-02-18T01:43:09.524Z,73612.44
2023-02-18T01:43:41.918Z,73620.41
2023-02-18T01:44:17.355Z,73620.41
2023-02-18T01:44:54.063Z,73620.41
2023-02-18T01:45:51.233Z,73618.44
2023-02-18T01:46:26.146Z,73612.44
2023-02-18T01:46:58.422Z,73612.44
2023-02-18T01:47:30.702Z,73616.44
2023-02-18T01:48:06.499Z,73620.41
2023-02-18T01:48:43.665Z,73612.44
2023-02-18T01:49:18.552Z,73620.41
2023-02-18T01:49:52.790Z,73616.44
2023-02-18T01:50:25.229Z,73618.44
2023-02-18T01:51:04.660Z,73616.44
2023-02-18T01:51:40.037Z,73614.44
2023-02-18T01:52:17.599Z,73616.44
2023-02-18T01:52:49.851Z,73616.44
2023-02-18T01:53:28.268Z,73616.44
2023-02-18T01:54:06.570Z,73622.41
2023-02-18T01:54:41.712Z,73616.44
2023-02-18T01:55:13.970Z,73616.44
2023-02-18T01:55:52.150Z,73616.44
2023-02-18T01:56:27.520Z,73624.41
2023-02-18T01:57:04.907Z,73612.44
2023-02-18T01:57:38.734Z,73614.44
2023-02-18T01:58:12.252Z,73616.44
2023-02-18T01:58:47.264Z,73626.41
2023-02-18T01:59:22.344Z,73622.41
2023-02-18T01:59:59.034Z,73616.44
2023-02-18T02:00:32.940Z,73620.41
2023-02-18T02:01:05.857Z,73612.44
2023-02-18T02:01:42.347Z,73612.44
2023-02-18T02:02:18.696Z,73614.44
2023-02-18T02:02:52.888Z,73612.44
2023-02-18T02:03:27.738Z,73624.41
2023-02-18T02:04:00.120Z,73618.44
2023-02-18T02:04:35.086Z,73616.44
2023-02-18T02:05:08.627Z,73622.41
2023-02-18T02:05:42.608Z,73616.44
2023-02-18T02:06:23.324Z,73616.44
2023-02-18T02:06:55.937Z,73612.44
2023-02-18T02:07:29.431Z,73622.41
2023-02-18T02:08:02.379Z,73612.44
2023-02-18T02:08:40.295Z,73616.44
2023-02-18T02:09:14.908Z,73612.44
2023-02-18T02:09:48.625Z,73614.44
2023-02-18T02:10:23.525Z,73618.44
2023-02-18T02:11:11.516Z,73612.44
2023-02-18T02:12:09.864Z,73620.41
2023-02-18T02:12:50.633Z,73610.44
2023-02-18T02:13:30.269Z,73608.44
2023-02-18T02:14:18.541Z,73608.44
2023-02-18T02:15:12.028Z,73604.44
2023-02-18T02:15:47.185Z,73614.44
2023-02-18T02:16:25.380Z,73610.44
2023-02-18T02:17:03.814Z,73608.44
2023-02-18T02:17:44.755Z,73606.44
2023-02-18T02:18:42.253Z,73618.44
2023-02-18T02:19:39.067Z,73608.44
2023-02-18T02:20:45.424Z,73604.44
2023-02-18T02:22:07.406Z,73604.44
2023-02-18T02:23:18.005Z,73608.44
2023-02-18T02:24:21.736Z,73616.44
2023-02-18T02:25:11.480Z,73618.44
2023-02-18T02:26:19.577Z,73616.44
2023-02-18T02:27:07.010Z,73612.44
2023-02-18T02:28:09.006Z,73606.44
2023-02-18T02:29:05.503Z,73614.44
2023-02-18T02:30:18.126Z,73616.44
2023-02-18T02:31:18.588Z,73616.44
2023-02-18T02:32:25.674Z,73610.44
2023-02-18T02:33:27.843Z,73608.44
2023-02-18T02:34:37.367Z,73616.44
2023-02-18T02:35:11.821Z,73612.44
2023-02-18T02:35:46.252Z,73618.44
2023-02-18T02:36:23.500Z,73604.44
2023-02-18T02:36:58.304Z,73604.44
2023-02-18T02:37:35.795Z,73606.44
2023-02-18T02:38:15.557Z,73606.44
2023-02-18T02:38:55.641Z,73604.44
2023-02-18T02:39:36.929Z,73604.44
2023-02-18T02:40:18.999Z,73596.47
2023-02-18T02:40:56.908Z,73608.44
2023-02-18T02:41:42.666Z,73596.47
2023-02-18T02:42:20.522Z,73598.47
2023-02-18T02:43:04.552Z,73594.47
2023-02-18T02:43:44.304Z,73594.47
2023-02-18T02:44:21.290Z,73596.47
2023-02-18T02:44:59.575Z,73592.47
2023-02-18T02:45:43.292Z,73592.47
2023-02-18T02:46:19.664Z,73592.47
2023-02-18T02:46:56.008Z,73596.47
2023-02-18T02:47:34.236Z,73596.47
2023-02-18T02:48:10.857Z,73596.47
2023-02-18T02:48:51.289Z,73596.47
2023-02-18T02:49:32.659Z,73600.47
2023-02-18T02:50:10.159Z,73594.47
2023-02-18T02:50:48.727Z,73600.47
2023-02-18T02:51:26.327Z,73588.47
2023-02-18T02:52:04.718Z,73598.47
2023-02-18T02:52:40.314Z,73596.47
2023-02-18T02:53:16.544Z,73596.47
2023-02-18T02:53:51.483Z,73594.47
2023-02-18T02:54:25.472Z,73592.47
2023-02-18T02:54:59.829Z,73600.47
2023-02-18T02:55:34.718Z,73592.47
2023-02-18T02:56:11.806Z,73592.47
2023-02-18T02:56:44.616Z,73584.50
2023-02-18T02:57:48.650Z,73586.47
2023-02-18T02:58:25.952Z,73588.47
2023-02-18T02:59:04.327Z,73594.47
2023-02-18T02:59:45.600Z,73596.47
2023-02-18T03:00:20.821Z,73588.47
2023-02-18T03:01:13.978Z,73592.47
2023-02-18T03:02:01.448Z,73592.47
2023-02-18T03:02:41.006Z,73590.47
2023-02-18T03:03:40.730Z,73596.47
2023-02-18T03:04:25.111Z,73592.47
2023-02-18T03:05:14.826Z,73600.47
2023-02-18T03:05:56.537Z,73584.50
2023-02-18T03:06:56.732Z,73594.47
2023-02-18T03:07:55.509Z,73592.47
2023-02-18T03:08:40.803Z,73588.47
2023-02-18T03:09:17.733Z,73588.47
2023-02-18T03:10:05.698Z,73584.50
2023-02-18T03:10:48.524Z,73588.47
2023-02-18T03:11:21.352Z,73588.47
2023-02-18T03:11:59.185Z,73584.50
2023-02-18T03:12:38.905Z,73580.50
2023-02-18T03:13:18.339Z,73592.47
2023-02-18T03:14:11.835Z,73588.47
2023-02-18T03:14:54.509Z,73584.50
2023-02-18T03:15:31.322Z,73580.50
2023-02-18T03:16:16.107Z,73584.50
2023-02-18T03:16:50.710Z,73580.50
2023-02-18T03:17:25.667Z,73584.50
2023-02-18T03:18:04.264Z,73576.50
2023-02-18T03:18:39.076Z,73584.50
2023-02-18T03:19:16.582Z,73580.50
2023-02-18T03:19:56.172Z,73584.50
2023-02-18T03:20:35.900Z,73580.50
2023-02-18T03:21:11.048Z,73592.47
2023-02-18T03:21:49.236Z,73598.47
2023-02-18T03:22:24.471Z,73596.47
2023-02-18T03:22:58.781Z,73596.47
2023-02-18T03:23:37.847Z,73596.47
2023-02-18T03:24:15.058Z,73596.47
2023-02-18T03:24:53.703Z,73596.47
2023-02-18T03:25:29.002Z,73602.47
2023-02-18T03:26:03.572Z,73592.47
2023-02-18T03:26:41.096Z,73602.47
2023-02-18T03:27:17.031Z,73594.47
2023-02-18T03:27:51.920Z,73596.47
2023-02-18T03:28:27.615Z,73600.47
2023-02-18T03:29:02.254Z,73600.47
2023-02-18T03:29:35.308Z,73596.47
2023-02-18T03:30:17.796Z,73600.47
2023-02-18T03:30:53.514Z,73600.47
2023-02-18T03:31:30.583Z,73596.47
2023-02-18T03:32:06.042Z,73604.44
2023-02-18T03:32:38.281Z,73600.47
2023-02-18T03:33:16.225Z,73600.47
2023-02-18T03:33:52.500Z,73600.47
2023-02-18T03:34:30.087Z,73600.47
2023-02-18T03:35:07.581Z,73600.47
2023-02-18T03:35:43.703Z,73604.44
2023-02-18T03:36:18.733Z,73600.47
2023-02-18T03:36:51.258Z,73598.47
2023-02-18T03:37:24.099Z,73608.44
2023-02-18T03:38:02.922Z,73604.44
2023-02-18T03:38:38.878Z,73604.44
2023-02-18T03:39:14.661Z,73602.47
2023-02-18T03:39:52.382Z,73604.44
2023-02-18T03:40:24.949Z,73602.47
2023-02-18T03:40:57.530Z,73604.44
2023-02-18T03:41:32.852Z,73594.47
2023-02-18T03:42:05.399Z,73596.47
2023-02-18T03:42:37.789Z,73594.47
2023-02-18T03:43:14.352Z,73594.47
2023-02-18T03:43:50.337Z,73594.47
2023-02-18T03:44:24.903Z,73602.47
2023-02-18T03:45:00.756Z,73598.47
2023-02-18T03:45:33.139Z,73600.47
2023-02-18T03:46:05.811Z,73600.47
2023-02-18T03:46:43.713Z,73596.47
2023-02-18T03:47:15.996Z,73594.47
2023-02-18T03:47:50.660Z,73596.47
2023-02-18T03:48:25.573Z,73596.47
2023-02-18T03:48:58.018Z,73588.47
2023-02-18T03:49:30.352Z,73592.47
2023-02-18T03:50:10.813Z,73594.47
2023-02-18T03:50:45.763Z,73592.47
2023-02-18T03:51:18.271Z,73596.47
2023-02-18T03:51:53.232Z,73588.47
2023-02-18T03:52:26.483Z,73584.50
2023-02-18T03:52:58.755Z,73590.47
2023-02-18T03:53:35.120Z,73584.50
2023-02-18T03:54:07.486Z,73588.47
2023-02-18T03:54:39.748Z,73584.50
2023-02-18T03:55:16.126Z,73588.47
2023-02-18T03:55:48.398Z,73588.47
2023-02-18T03:56:21.185Z,73582.50
2023-02-18T03:56:56.023Z,73590.47
2023-02-18T03:57:28.242Z,73590.47
2023-02-18T03:58:00.475Z,73588.47
2023-02-18T03:58:35.304Z,73588.47
2023-02-18T03:59:07.592Z,73592.47
2023-02-18T03:59:39.835Z,73584.50
2023-02-18T04:00:13.033Z,73588.47
2023-02-18T04:00:50.804Z,73592.47
2023-02-18T04:01:23.596Z,73592.47
2023-02-18T04:01:55.876Z,73592.47
2023-02-18T04:02:28.095Z,73588.47
2023-02-18T04:03:02.965Z,73588.47
2023-02-18T04:03:35.203Z,73590.47
2023-02-18T04:04:07.512Z,73592.47
2023-02-18T04:04:42.391Z,73588.47
2023-02-18T04:05:14.635Z,73590.47
2023-02-18T04:05:49.513Z,73584.50
2023-02-18T04:06:24.577Z,73580.50
2023-02-18T04:06:56.834Z,73586.47
2023-02-18T04:07:29.200Z,73588.47
2023-02-18T04:08:04.047Z,73580.50
2023-02-18T04:08:36.745Z,73592.47
2023-02-18T04:09:10.186Z,73588.47
2023-02-18T04:09:45.054Z,73590.47
2023-02-18T04:10:17.692Z,73588.47
2023-02-18T04:10:49.924Z,73588.47
2023-02-18T04:11:24.828Z,73588.47
2023-02-18T04:11:57.069Z,73588.47
2023-02-18T04:12:29.300Z,73588.47
2023-02-18T04:13:04.126Z,73586.47
2023-02-18T04:13:36.358Z,73592.47
2023-02-18T04:14:09.430Z,73596.47
2023-02-18T04:14:44.297Z,73592.47
2023-02-18T04:15:16.642Z,73588.47
2023-02-18T04:15:49.610Z,73604.44
2023-02-18T04:16:24.536Z,73592.47
2023-02-18T04:16:56.838Z,73592.47
2023-02-18T04:17:29.111Z,73600.47
2023-02-18T04:18:04.024Z,73600.47
2023-02-18T04:18:36.317Z,73596.47
2023-02-18T04:19:08.788Z,73600.47
2023-02-18T04:19:43.721Z,73598.47
2023-02-18T04:20:16.727Z,73604.44
2023-02-18T04:20:52.372Z,73604.44
2023-02-18T04:21:27.247Z,73610.44
2023-02-18T04:21:59.477Z,73608.44
2023-02-18T04:22:31.784Z,73608.44
2023-02-18T04:23:06.652Z,73596.47
2023-02-18T04:23:39.185Z,73592.47
2023-02-18T04:24:11.426Z,73602.47
2023-02-18T04:24:46.383Z,73604.44
2023-02-18T04:25:18.803Z,73600.47
2023-02-18T04:25:51.144Z,73608.44
2023-02-18T04:26:25.989Z,73606.44
2023-02-18T04:26:58.215Z,73608.44
2023-02-18T04:27:30.455Z,73602.47
2023-02-18T04:28:05.373Z,73606.44
2023-02-18T04:28:37.639Z,73608.44
2023-02-18T04:29:09.919Z,73608.44
2023-02-18T04:29:45.051Z,73612.44
2023-02-18T04:30:19.013Z,73612.44
2023-02-18T04:30:51.424Z,73606.44
2023-02-18T04:31:26.446Z,73614.44
2023-02-18T04:31:58.775Z,73604.44
2023-02-18T04:32:31.032Z,73608.44
2023-02-18T04:33:05.867Z,73608.44
2023-02-18T04:33:38.104Z,73608.44
2023-02-18T04:34:10.340Z,73616.44
2023-02-18T04:34:45.245Z,73612.44
2023-02-18T04:35:17.976Z,73610.44
2023-02-18T04:35:55.425Z,73608.44
2023-02-18T04:36:27.784Z,73606.44
2023-02-18T04:37:02.704Z,73612.44
2023-02-18T04:37:34.989Z,73616.44
2023-02-18T04:38:07.791Z,73608.44
2023-02-18T04:38:43.276Z,73608.44
2023-02-18T04:39:15.530Z,73610.44
2023-02-18T04:39:47.806Z,73616.44
2023-02-18T04:40:22.747Z,73612.44
2023-02-18T04:40:54.974Z,73608.44
2023-02-18T04:41:27.210Z,73612.44
2023-02-18T04:42:02.361Z,73614.44
2023-02-18T04:42:34.838Z,73608.44
2023-02-18T04:43:07.104Z,73612.44
2023-02-18T04:43:39.390Z,73608.44
2023-02-18T04:44:14.314Z,73610.44
2023-02-18T04:44:47.580Z,73604.44
2023-02-18T04:45:19.963Z,73614.44
2023-02-18T04:45:55.142Z,73606.44
2023-02-18T04:46:27.557Z,73608.44
2023-02-18T04:46:59.785Z,73608.44
2023-02-18T04:47:34.610Z,73612.44
2023-02-18T04:48:07.149Z,73608.44
2023-02-18T04:48:41.840Z,73600.47
2023-02-18T04:49:16.727Z,73608.44
2023-02-18T04:49:49.000Z,73612.44
2023-02-18T04:50:21.744Z,73608.44
2023-02-18T04:50:59.223Z,73614.44
2023-02-18T04:51:31.506Z,73612.44
2023-02-18T04:52:04.027Z,73608.44
2023-02-18T04:52:38.859Z,73608.44
2023-02-18T04:53:11.097Z,73608.44
2023-02-18T04:53:43.343Z,73612.44
2023-02-18T04:54:18.178Z,73610.44
2023-02-18T04:54:50.589Z,73612.44
2023-02-18T04:55:22.919Z,73612.44
2023-02-18T04:55:57.827Z,73618.44
2023-02-18T04:56:30.058Z,73616.44
2023-02-18T04:57:02.337Z,73612.44
2023-02-18T04:57:37.262Z,73616.44
2023-02-18T04:58:10.674Z,73616.44
2023-02-18T04:58:42.942Z,73610.44
2023-02-18T04:59:17.798Z,73610.44
2023-02-18T04:59:50.024Z,73608.44
2023-02-18T05:00:22.525Z,73612.44
2023-02-18T05:00:57.565Z,73612.44
2023-02-18T05:01:29.824Z,73606.44
2023-02-18T05:02:02.106Z,73604.44
2023-02-18T05:02:37.241Z,73596.47
2023-02-18T05:03:09.478Z,73608.44
2023-02-18T05:03:41.745Z,73612.44
2023-02-18T05:04:17.612Z,73608.44
2023-02-18T05:04:49.882Z,73608.44
2023-02-18T05:05:22.249Z,73608.44
2023-02-18T05:06:00.117Z,73600.47
2023-02-18T05:06:32.381Z,73604.44
2023-02-18T05:07:04.890Z,73602.47
2023-02-18T05:07:40.371Z,73604.44
2023-02-18T05:08:12.795Z,73598.47
2023-02-18T05:08:45.047Z,73600.47
2023-02-18T05:09:19.879Z,73604.44
2023-02-18T05:09:52.145Z,73592.47
2023-02-18T05:10:24.385Z,73594.47
2023-02-18T05:10:59.373Z,73592.47
2023-02-18T05:11:31.648Z,73594.47
2023-02-18T05:12:06.818Z,73594.47
2023-02-18T05:12:39.133Z,73596.47
2023-02-18T05:13:11.374Z,73594.47
2023-02-18T05:13:46.300Z,73596.47
2023-02-18T05:14:18.698Z,73600.47
2023-02-18T05:14:50.940Z,73592.47
2023-02-18T05:15:25.794Z,73592.47
2023-02-18T05:15:58.094Z,73600.47
2023-02-18T05:16:30.376Z,73596.47
2023-02-18T05:17:05.240Z,73588.47
2023-02-18T05:17:37.478Z,73592.47
2023-02-18T05:18:09.720Z,73596.47
2023-02-18T05:18:44.717Z,73592.47
2023-02-18T05:19:17.532Z,73596.47
2023-02-18T05:19:49.776Z,73588.47
2023-02-18T05:20:24.675Z,73598.47
2023-02-18T05:21:00.646Z,73592.47
2023-02-18T05:21:33.285Z,73600.47
2023-02-18T05:22:09.104Z,73596.47
2023-02-18T05:22:41.343Z,73598.47
2023-02-18T05:23:13.650Z,73594.47
2023-02-18T05:23:48.492Z,73594.47
2023-02-18T05:24:20.729Z,73596.47
2023-02-18T05:24:52.983Z,73588.47
2023-02-18T05:25:27.823Z,73590.47
2023-02-18T05:26:00.079Z,73594.47
2023-02-18T05:26:32.443Z,73592.47
2023-02-18T05:27:07.279Z,73588.47
2023-02-18T05:27:39.703Z,73600.47
2023-02-18T05:28:11.971Z,73588.47
2023-02-18T05:28:44.209Z,73596.47
2023-02-18T05:29:19.069Z,73592.47
2023-02-18T05:29:51.342Z,73592.47
2023-02-18T05:30:23.631Z,73586.47
2023-02-18T05:30:58.840Z,73592.47
2023-02-18T05:31:31.301Z,73592.47
2023-02-18T05:32:03.664Z,73594.47
2023-02-18T05:32:38.546Z,73590.47
2023-02-18T05:33:10.811Z,73590.47
2023-02-18T05:33:43.084Z,73596.47
2023-02-18T05:34:18.005Z,73592.47
2023-02-18T05:34:50.300Z,73596.47
2023-02-18T05:35:22.806Z,73596.47
2023-02-18T05:35:57.666Z,73592.47
2023-02-18T05:36:32.557Z,73592.47
2023-02-18T05:37:04.872Z,73596.47
2023-02-18T05:37:39.705Z,73600.47
2023-02-18T05:38:11.976Z,73592.47
2023-02-18T05:38:44.214Z,73596.47
2023-02-18T05:39:19.073Z,73596.47
2023-02-18T05:39:51.331Z,73596.47
2023-02-18T05:40:23.573Z,73594.47
2023-02-18T05:40:55.879Z,73596.47
2023-02-18T05:41:30.714Z,73592.47
2023-02-18T05:42:02.978Z,73596.47
2023-02-18T05:42:35.328Z,73600.47
2023-02-18T05:43:07.620Z,73600.47
2023-02-18T05:43:54.690Z,73604.44
2023-02-18T05:44:35.514Z,73602.47
2023-02-18T05:45:08.921Z,73608.44
2023-02-18T05:45:41.203Z,73604.44
2023-02-18T05:46:13.488Z,73608.44
2023-02-18T05:46:48.383Z,73610.44
2023-02-18T05:47:20.815Z,73610.44
2023-02-18T05:47:53.086Z,73616.44
2023-02-18T05:48:27.935Z,73612.44
2023-02-18T05:49:00.204Z,73616.44
2023-02-18T05:49:33.795Z,73616.44
2023-02-18T05:50:10.627Z,73620.41
2023-02-18T05:50:43.073Z,73616.44
2023-02-18T05:51:15.780Z,73620.41
2023-02-18T05:51:53.262Z,73624.41
2023-02-18T05:52:25.500Z,73628.41
2023-02-18T05:53:00.416Z,73622.41
2023-02-18T05:53:32.640Z,73630.41
2023-02-18T05:54:05.347Z,73628.41
2023-02-18T05:54:40.872Z,73632.41
2023-02-18T05:55:13.148Z,73630.41
2023-02-18T05:55:45.390Z,73634.41
2023-02-18T05:56:20.254Z,73632.41
2023-02-18T05:56:52.849Z,73632.41
2023-02-18T05:57:27.768Z,73632.41
2023-02-18T05:58:00.017Z,73628.41
2023-02-18T05:58:32.276Z,73626.41
2023-02-18T05:59:07.202Z,73636.41
2023-02-18T05:59:39.479Z,73634.41
2023-02-18T06:00:15.801Z,73634.41
2023-02-18T06:00:48.016Z,73632.41
2023-02-18T06:01:20.334Z,73636.41
2023-02-18T06:01:57.381Z,73632.41
2023-02-18T06:02:29.628Z,73634.41
2023-02-18T06:03:01.967Z,73632.41
2023-02-18T06:03:36.916Z,73636.41
2023-02-18T06:04:09.653Z,73636.41
2023-02-18T06:04:44.521Z,73634.41
2023-02-18T06:05:16.901Z,73628.41
2023-02-18T06:05:50.670Z,73636.41
2023-02-18T06:06:25.549Z,73628.41
2023-02-18T06:07:00.419Z,73632.41
2023-02-18T06:07:32.657Z,73632.41
2023-02-18T06:08:08.104Z,73628.41
2023-02-18T06:08:40.788Z,73634.41
2023-02-18T06:09:13.249Z,73626.41
2023-02-18T06:09:48.123Z,73626.41
2023-02-18T06:10:20.596Z,73628.41
2023-02-18T06:10:52.873Z,73632.41
2023-02-18T06:11:25.149Z,73624.41
2023-02-18T06:12:00.141Z,73628.41
2023-02-18T06:12:32.433Z,73626.41
2023-02-18T06:13:05.700Z,73622.41
2023-02-18T06:13:40.588Z,73632.41
2023-02-18T06:14:12.831Z,73632.41
2023-02-18T06:14:45.349Z,73624.41
2023-02-18T06:15:20.438Z,73628.41
2023-02-18T06:15:53.761Z,73624.41
2023-02-18T06:16:26.256Z,73628.41
2023-02-18T06:17:01.149Z,73620.41
2023-02-18T06:17:33.402Z,73622.41
2023-02-18T06:18:06.237Z,73624.41
2023-02-18T06:18:41.071Z,73624.41
2023-02-18T06:19:13.491Z,73620.41
2023-02-18T06:19:46.176Z,73622.41
2023-02-18T06:20:21.467Z,73626.41
2023-02-18T06:20:53.732Z,73614.44
2023-02-18T06:21:26.000Z,73616.44
2023-02-18T06:22:03.527Z,73620.41
2023-02-18T06:22:35.782Z,73620.41
2023-02-18T06:23:09.111Z,73626.41
2023-02-18T06:23:45.173Z,73616.44
2023-02-18T06:24:17.410Z,73616.44
2023-02-18T06:24:49.686Z,73612.44
2023-02-18T06:25:24.749Z,73616.44
2023-02-18T06:25:56.994Z,73620.41
2023-02-18T06:26:29.406Z,73624.41
2023-02-18T06:27:04.694Z,73620.41
2023-02-18T06:27:36.938Z,73624.41
2023-02-18T06:28:09.247Z,73612.44
2023-02-18T06:28:44.126Z,73616.44
2023-02-18T06:29:16.402Z,73614.44
2023-02-18T06:29:48.802Z,73614.44
2023-02-18T06:30:24.722Z,73624.41
2023-02-18T06:30:57.089Z,73620.41
2023-02-18T06:31:29.543Z,73616.44
2023-02-18T06:32:04.586Z,73618.44
2023-02-18T06:32:36.926Z,73616.44
2023-02-18T06:33:11.753Z,73616.44
2023-02-18T06:33:44.065Z,73622.41
2023-02-18T06:34:18.928Z,73616.44
2023-02-18T06:34:51.177Z,73620.41
2023-02-18T06:35:23.420Z,73612.44
2023-02-18T06:35:59.410Z,73616.44
2023-02-18T06:36:31.745Z,73618.44
2023-02-18T06:37:06.618Z,73620.41
2023-02-18T06:37:41.488Z,73616.44
2023-02-18T06:38:13.712Z,73608.44
2023-02-18T06:38:47.304Z,73614.44
2023-02-18T06:39:22.248Z,73610.44
2023-02-18T06:39:54.567Z,73612.44
2023-02-18T06:40:27.013Z,73614.44
2023-02-18T06:41:01.871Z,73612.44
2023-02-18T06:41:34.487Z,73616.44
2023-02-18T06:42:06.763Z,73616.44
2023-02-18T06:42:41.624Z,73608.44
2023-02-18T06:43:13.985Z,73608.44
2023-02-18T06:43:46.221Z,73612.44
2023-02-18T06:44:21.087Z,73616.44
2023-02-18T06:44:53.336Z,73616.44
2023-02-18T06:45:25.605Z,73616.44
2023-02-18T06:45:57.995Z,73614.44
2023-02-18T06:46:32.884Z,73610.44
2023-02-18T06:47:05.262Z,73610.44
2023-02-18T06:47:37.492Z,73616.44
2023-02-18T06:48:12.403Z,73608.44
2023-02-18T06:48:44.618Z,73616.44
2023-02-18T06:49:19.447Z,73614.44
2023-02-18T06:49:51.681Z,73612.44
2023-02-18T06:50:23.940Z,73606.44
2023-02-18T06:50:58.870Z,73608.44
2023-02-18T06:51:31.136Z,73612.44
2023-02-18T06:52:06.285Z,73614.44
2023-02-18T06:52:41.112Z,73616.44
2023-02-18T06:53:13.544Z,73618.44
2023-02-18T06:53:46.236Z,73604.44
2023-02-18T06:54:21.131Z,73616.44
2023-02-18T06:54:53.363Z,73620.41
2023-02-18T06:55:26.110Z,73622.41